createdAt,value
2018-07-31T00:00:47.846Z,955.82
2018-07-31T00:01:47.847Z,955.83
2018-07-31T00:02:47.844Z,955.82
2018-07-31T00:03:47.844Z,955.83
2018-07-31T00:04:47.843Z,955.81
2018-07-31T00:05:47.842Z,955.82
2018-07-31T00:06:47.842Z,955.82
2018-07-31T00:07:47.843Z,955.86
2018-07-31T00:08:47.841Z,955.86
2018-07-31T00:09:47.841Z,955.85
2018-07-31T00:10:47.840Z,955.87
2018-07-31T00:11:47.838Z,955.82
2018-07-31T00:12:47.838Z,955.84
2018-07-31T00:13:47.838Z,955.8
2018-07-31T00:14:47.837Z,955.8
2018-07-31T00:15:47.837Z,955.83
2018-07-31T00:16:47.836Z,955.8
2018-07-31T00:17:47.839Z,955.77
2018-07-31T00:18:47.835Z,955.74
2018-07-31T00:19:47.834Z,955.74
2018-07-31T00:20:47.834Z,955.75
2018-07-31T00:21:47.833Z,955.73
2018-07-31T00:22:47.831Z,955.7
2018-07-31T00:23:47.877Z,955.69
2018-07-31T00:24:47.830Z,955.73
2018-07-31T00:25:47.830Z,955.69
2018-07-31T00:26:47.829Z,955.69
2018-07-31T00:27:47.830Z,955.69
2018-07-31T00:28:47.835Z,955.73
2018-07-31T00:29:47.828Z,955.67
2018-07-31T00:30:47.829Z,955.69
2018-07-31T00:31:47.825Z,955.69
2018-07-31T00:32:47.827Z,955.71
2018-07-31T00:33:47.826Z,955.71
2018-07-31T00:34:47.825Z,955.71
2018-07-31T00:35:47.824Z,955.73
2018-07-31T00:36:47.824Z,955.71
2018-07-31T00:37:47.826Z,955.7
2018-07-31T00:38:47.830Z,955.73
2018-07-31T00:39:47.823Z,955.72
2018-07-31T00:40:47.823Z,955.72
2018-07-31T00:41:47.820Z,955.73
2018-07-31T00:42:47.822Z,955.74
2018-07-31T00:43:47.821Z,955.71
2018-07-31T00:44:47.819Z,955.71
2018-07-31T00:45:47.820Z,955.7
2018-07-31T00:46:47.820Z,955.74
2018-07-31T00:47:47.820Z,955.72
2018-07-31T00:48:47.819Z,955.74
2018-07-31T00:49:47.818Z,955.72
2018-07-31T00:50:47.818Z,955.7
2018-07-31T00:51:47.817Z,955.72
2018-07-31T00:52:47.817Z,955.69
2018-07-31T00:53:47.817Z,955.7
2018-07-31T00:54:47.816Z,955.67
2018-07-31T00:55:47.815Z,955.7
2018-07-31T00:56:47.816Z,955.7
2018-07-31T00:57:47.820Z,955.68
2018-07-31T00:58:47.817Z,955.69
2018-07-31T00:59:47.819Z,955.67
2018-07-31T01:00:47.815Z,955.63
2018-07-31T01:01:47.814Z,955.64
2018-07-31T01:02:47.813Z,955.65
2018-07-31T01:03:47.813Z,955.61
2018-07-31T01:04:47.813Z,955.59
2018-07-31T01:05:47.814Z,955.59
2018-07-31T01:06:47.812Z,955.61
2018-07-31T01:07:47.813Z,955.6
2018-07-31T01:08:47.815Z,955.59
2018-07-31T01:09:47.812Z,955.59
2018-07-31T01:10:47.812Z,955.55
2018-07-31T01:11:47.811Z,955.55
2018-07-31T01:12:47.812Z,955.53
2018-07-31T01:13:47.811Z,955.53
2018-07-31T01:14:47.811Z,955.54
2018-07-31T01:15:47.809Z,955.53
2018-07-31T01:16:47.809Z,955.51
2018-07-31T01:17:47.808Z,955.52
2018-07-31T01:18:47.808Z,955.52
2018-07-31T01:19:47.808Z,955.53
2018-07-31T01:20:47.809Z,955.56
2018-07-31T01:21:47.808Z,955.54
2018-07-31T01:22:47.807Z,955.54
2018-07-31T01:23:47.807Z,955.56
2018-07-31T01:24:47.805Z,955.58
2018-07-31T01:25:47.810Z,955.54
2018-07-31T01:26:47.810Z,955.53
2018-07-31T01:27:47.806Z,955.52
2018-07-31T01:28:47.803Z,955.56
2018-07-31T01:29:47.807Z,955.54
2018-07-31T01:30:47.802Z,955.55
2018-07-31T01:31:47.804Z,955.51
2018-07-31T01:32:47.802Z,955.53
2018-07-31T01:33:47.802Z,955.47
2018-07-31T01:34:47.801Z,955.53
2018-07-31T01:35:47.801Z,955.53
2018-07-31T01:36:47.801Z,955.51
2018-07-31T01:37:47.802Z,955.53
2018-07-31T01:38:47.801Z,955.52
2018-07-31T01:39:47.800Z,955.52
2018-07-31T01:40:47.800Z,955.51
2018-07-31T01:41:47.801Z,955.53
2018-07-31T01:42:47.800Z,955.48
2018-07-31T01:43:47.799Z,955.46
2018-07-31T01:44:47.799Z,955.52
2018-07-31T01:45:47.852Z,955.46
2018-07-31T01:46:47.797Z,955.41
2018-07-31T01:47:47.802Z,955.45
2018-07-31T01:48:47.798Z,955.38
2018-07-31T01:49:47.797Z,955.39
2018-07-31T01:50:47.796Z,955.47
2018-07-31T01:51:47.796Z,955.44
2018-07-31T01:52:47.796Z,955.42
2018-07-31T01:53:47.794Z,955.4
2018-07-31T01:54:47.794Z,955.35
2018-07-31T01:55:47.797Z,955.4
2018-07-31T01:56:47.796Z,955.38
2018-07-31T01:57:47.793Z,955.38
2018-07-31T01:58:47.793Z,955.36
2018-07-31T01:59:47.792Z,955.39
2018-07-31T02:00:47.793Z,955.34
2018-07-31T02:01:47.791Z,955.37
2018-07-31T02:02:47.790Z,955.37
2018-07-31T02:03:47.792Z,955.36
2018-07-31T02:04:47.793Z,955.34
2018-07-31T02:05:47.790Z,955.33
2018-07-31T02:06:47.789Z,955.33
2018-07-31T02:07:47.790Z,955.35
2018-07-31T02:08:47.788Z,955.31
2018-07-31T02:09:47.787Z,955.32
2018-07-31T02:10:47.788Z,955.28
2018-07-31T02:11:47.818Z,955.29
2018-07-31T02:12:47.786Z,955.29
2018-07-31T02:13:47.787Z,955.33
2018-07-31T02:14:47.787Z,955.28
2018-07-31T02:15:47.786Z,955.27
2018-07-31T02:16:47.784Z,955.27
2018-07-31T02:17:47.786Z,955.25
2018-07-31T02:18:47.783Z,955.23
2018-07-31T02:19:47.783Z,955.26
2018-07-31T02:20:47.785Z,955.26
2018-07-31T02:21:47.782Z,955.26
2018-07-31T02:22:47.782Z,955.25
2018-07-31T02:23:47.781Z,955.27
2018-07-31T02:24:47.782Z,955.27
2018-07-31T02:25:47.782Z,955.23
2018-07-31T02:26:47.782Z,955.25
2018-07-31T02:27:47.782Z,955.25
2018-07-31T02:28:47.784Z,955.23
2018-07-31T02:29:47.781Z,955.22
2018-07-31T02:30:47.779Z,955.23
2018-07-31T02:31:47.779Z,955.23
2018-07-31T02:32:47.780Z,955.22
2018-07-31T02:33:47.777Z,955.23
2018-07-31T02:34:47.776Z,955.19
2018-07-31T02:35:47.779Z,955.21
2018-07-31T02:36:47.778Z,955.2
2018-07-31T02:37:47.776Z,955.16
2018-07-31T02:38:47.775Z,955.2
2018-07-31T02:39:47.773Z,955.18
2018-07-31T02:40:47.774Z,955.21
2018-07-31T02:41:47.774Z,955.14
2018-07-31T02:42:47.774Z,955.18
2018-07-31T02:43:47.776Z,955.19
2018-07-31T02:44:47.774Z,955.19
2018-07-31T02:45:47.771Z,955.22
2018-07-31T02:46:47.841Z,955.22
2018-07-31T02:47:47.771Z,955.26
2018-07-31T02:48:47.771Z,955.17
2018-07-31T02:49:47.771Z,955.18
2018-07-31T02:50:47.769Z,955.21
2018-07-31T02:51:47.769Z,955.19
2018-07-31T02:52:47.769Z,955.22
2018-07-31T02:53:47.767Z,955.22
2018-07-31T02:54:47.766Z,955.22
2018-07-31T02:55:47.767Z,955.2
2018-07-31T02:56:47.768Z,955.2
2018-07-31T02:57:47.766Z,955.25
2018-07-31T02:58:47.766Z,955.23
2018-07-31T02:59:47.768Z,955.26
2018-07-31T03:00:47.769Z,955.26
2018-07-31T03:01:47.764Z,955.26
2018-07-31T03:02:47.768Z,955.23
2018-07-31T03:03:47.764Z,955.25
2018-07-31T03:04:47.762Z,955.28
2018-07-31T03:05:47.762Z,955.22
2018-07-31T03:06:47.762Z,955.25
2018-07-31T03:07:47.762Z,955.23
2018-07-31T03:08:47.760Z,955.27
2018-07-31T03:09:47.761Z,955.25
2018-07-31T03:10:47.759Z,955.25
2018-07-31T03:11:47.758Z,955.26
2018-07-31T03:12:47.760Z,955.26
2018-07-31T03:13:47.759Z,955.26
2018-07-31T03:14:47.757Z,955.24
2018-07-31T03:15:47.757Z,955.25
2018-07-31T03:16:47.755Z,955.3
2018-07-31T03:17:47.755Z,955.26
2018-07-31T03:18:47.753Z,955.27
2018-07-31T03:19:47.755Z,955.29
2018-07-31T03:20:47.755Z,955.3
2018-07-31T03:21:47.759Z,955.28
2018-07-31T03:22:47.758Z,955.24
2018-07-31T03:23:47.753Z,955.27
2018-07-31T03:24:47.755Z,955.28
2018-07-31T03:25:47.758Z,955.29
2018-07-31T03:26:47.750Z,955.33
2018-07-31T03:27:47.754Z,955.31
2018-07-31T03:28:47.752Z,955.32
2018-07-31T03:29:47.749Z,955.28
2018-07-31T03:30:47.751Z,955.29
2018-07-31T03:31:47.751Z,955.3
2018-07-31T03:32:47.748Z,955.3
2018-07-31T03:33:47.747Z,955.27
2018-07-31T03:34:47.746Z,955.3
2018-07-31T03:35:47.747Z,955.28
2018-07-31T03:36:47.744Z,955.28
2018-07-31T03:37:47.749Z,955.27
2018-07-31T03:38:47.745Z,955.26
2018-07-31T03:39:47.749Z,955.3
2018-07-31T03:40:47.742Z,955.23
2018-07-31T03:41:47.746Z,955.3
2018-07-31T03:42:47.743Z,955.32
2018-07-31T03:43:47.742Z,955.25
2018-07-31T03:44:47.743Z,955.29
2018-07-31T03:45:47.745Z,955.29
2018-07-31T03:46:47.744Z,955.26
2018-07-31T03:47:47.739Z,955.26
2018-07-31T03:48:47.739Z,955.25
2018-07-31T03:49:47.741Z,955.26
2018-07-31T03:50:47.739Z,955.25
2018-07-31T03:51:47.739Z,955.22
2018-07-31T03:52:47.739Z,955.27
2018-07-31T03:53:47.738Z,955.27
2018-07-31T03:54:47.736Z,955.28
2018-07-31T03:55:47.737Z,955.26
2018-07-31T03:56:47.738Z,955.27
2018-07-31T03:57:47.736Z,955.3
2018-07-31T03:58:47.738Z,955.28
2018-07-31T03:59:47.735Z,955.29
2018-07-31T04:00:47.735Z,955.31
2018-07-31T04:01:47.734Z,955.29
2018-07-31T04:02:47.733Z,955.25
2018-07-31T04:03:47.734Z,955.32
2018-07-31T04:04:47.734Z,955.32
2018-07-31T04:05:47.732Z,955.33
2018-07-31T04:06:47.733Z,955.3
2018-07-31T04:07:47.734Z,955.31
2018-07-31T04:08:47.732Z,955.32
2018-07-31T04:09:47.732Z,955.33
2018-07-31T04:10:47.731Z,955.31
2018-07-31T04:11:47.733Z,955.32
2018-07-31T04:12:47.734Z,955.34
2018-07-31T04:13:47.731Z,955.33
2018-07-31T04:14:47.732Z,955.36
2018-07-31T04:15:47.732Z,955.36
2018-07-31T04:16:47.737Z,955.38
2018-07-31T04:17:47.730Z,955.35
2018-07-31T04:18:47.731Z,955.37
2018-07-31T04:19:47.731Z,955.4
2018-07-31T04:20:47.731Z,955.35
2018-07-31T04:21:47.732Z,955.38
2018-07-31T04:22:47.735Z,955.36
2018-07-31T04:23:47.731Z,955.32
2018-07-31T04:24:47.729Z,955.35
2018-07-31T04:25:47.729Z,955.36
2018-07-31T04:26:47.732Z,955.38
2018-07-31T04:27:47.729Z,955.4
2018-07-31T04:28:47.730Z,955.4
2018-07-31T04:29:47.729Z,955.38
2018-07-31T04:30:47.729Z,955.32
2018-07-31T04:31:47.728Z,955.38
2018-07-31T04:32:47.729Z,955.31
2018-07-31T04:33:47.729Z,955.31
2018-07-31T04:34:47.727Z,955.3
2018-07-31T04:35:47.766Z,955.34
2018-07-31T04:36:47.728Z,955.36
2018-07-31T04:37:47.729Z,955.38
2018-07-31T04:38:47.728Z,955.34
2018-07-31T04:39:47.731Z,955.34
2018-07-31T04:40:47.729Z,955.32
2018-07-31T04:41:47.730Z,955.28
2018-07-31T04:42:47.727Z,955.33
2018-07-31T04:43:47.728Z,955.31
2018-07-31T04:44:47.730Z,955.34
2018-07-31T04:45:47.728Z,955.32
2018-07-31T04:46:47.729Z,955.34
2018-07-31T04:47:47.729Z,955.31
2018-07-31T04:48:47.730Z,955.32
2018-07-31T04:49:47.729Z,955.34
2018-07-31T04:50:47.729Z,955.32
2018-07-31T04:51:47.729Z,955.35
2018-07-31T04:52:47.730Z,955.4
2018-07-31T04:53:47.730Z,955.4
2018-07-31T04:54:47.730Z,955.36
2018-07-31T04:55:47.730Z,955.36
2018-07-31T04:56:47.776Z,955.41
2018-07-31T04:57:47.729Z,955.39
2018-07-31T04:58:47.731Z,955.38
2018-07-31T04:59:47.732Z,955.39
2018-07-31T05:00:47.732Z,955.4
2018-07-31T05:01:47.733Z,955.41
2018-07-31T05:02:47.733Z,955.4
2018-07-31T05:03:47.733Z,955.37
2018-07-31T05:04:47.733Z,955.36
2018-07-31T05:05:47.736Z,955.33
2018-07-31T05:06:47.734Z,955.32
2018-07-31T05:07:47.735Z,955.36
2018-07-31T05:08:47.736Z,955.35
2018-07-31T05:09:47.737Z,955.33
2018-07-31T05:10:47.736Z,955.3
2018-07-31T05:11:47.738Z,955.35
2018-07-31T05:12:47.739Z,955.35
2018-07-31T05:13:47.739Z,955.33
2018-07-31T05:14:47.740Z,955.33
2018-07-31T05:15:47.740Z,955.38
2018-07-31T05:16:47.741Z,955.34
2018-07-31T05:17:47.743Z,955.4
2018-07-31T05:18:47.744Z,955.35
2018-07-31T05:19:47.742Z,955.38
2018-07-31T05:20:47.746Z,955.37
2018-07-31T05:21:47.748Z,955.39
2018-07-31T05:22:47.746Z,955.38
2018-07-31T05:23:47.747Z,955.39
2018-07-31T05:24:47.748Z,955.43
2018-07-31T05:25:47.750Z,955.39
2018-07-31T05:26:47.749Z,955.39
2018-07-31T05:27:47.751Z,955.37
2018-07-31T05:28:47.752Z,955.44
2018-07-31T05:29:47.752Z,955.41
2018-07-31T05:30:47.753Z,955.4
2018-07-31T05:31:47.759Z,955.44
2018-07-31T05:32:47.809Z,955.45
2018-07-31T05:33:47.758Z,955.44
2018-07-31T05:34:47.758Z,955.42
2018-07-31T05:35:47.759Z,955.43
2018-07-31T05:36:47.761Z,955.43
2018-07-31T05:37:47.763Z,955.47
2018-07-31T05:38:47.766Z,955.45
2018-07-31T05:39:47.766Z,955.47
2018-07-31T05:40:47.768Z,955.44
2018-07-31T05:41:47.783Z,955.53
2018-07-31T05:42:47.771Z,955.5
2018-07-31T05:43:47.772Z,955.52
2018-07-31T05:44:47.776Z,955.53
2018-07-31T05:45:47.774Z,955.51
2018-07-31T05:46:47.775Z,955.55
2018-07-31T05:47:47.776Z,955.51
2018-07-31T05:48:47.777Z,955.55
2018-07-31T05:49:47.789Z,955.57
2018-07-31T05:50:47.783Z,955.54
2018-07-31T05:51:47.786Z,955.55
2018-07-31T05:52:47.785Z,955.57
2018-07-31T05:53:47.788Z,955.59
2018-07-31T05:54:47.789Z,955.53
2018-07-31T05:55:47.790Z,955.51
2018-07-31T05:56:47.792Z,955.53
2018-07-31T05:57:47.794Z,955.49
2018-07-31T05:58:47.799Z,955.52
2018-07-31T05:59:47.798Z,955.52
2018-07-31T06:00:47.799Z,955.52
2018-07-31T06:01:47.804Z,955.5
2018-07-31T06:02:47.805Z,955.53
2018-07-31T06:03:47.804Z,955.51
2018-07-31T06:04:47.806Z,955.49
2018-07-31T06:05:47.808Z,955.5
2018-07-31T06:06:47.811Z,955.57
2018-07-31T06:07:47.813Z,955.53
2018-07-31T06:08:47.813Z,955.54
2018-07-31T06:09:47.819Z,955.57
2018-07-31T06:10:47.816Z,955.57
2018-07-31T06:11:47.820Z,955.58
2018-07-31T06:12:47.822Z,955.54
2018-07-31T06:13:47.824Z,955.6
2018-07-31T06:14:47.826Z,955.58
2018-07-31T06:15:47.828Z,955.59
2018-07-31T06:16:47.830Z,955.59
2018-07-31T06:17:47.833Z,955.6
2018-07-31T06:18:47.836Z,955.58
2018-07-31T06:19:47.838Z,955.61
2018-07-31T06:20:47.838Z,955.59
2018-07-31T06:21:47.845Z,955.65
2018-07-31T06:22:47.843Z,955.67
2018-07-31T06:23:47.846Z,955.66
2018-07-31T06:24:47.851Z,955.65
2018-07-31T06:25:47.850Z,955.69
2018-07-31T06:26:47.852Z,955.66
2018-07-31T06:27:47.853Z,955.69
2018-07-31T06:28:47.857Z,955.7
2018-07-31T06:29:47.919Z,955.7
2018-07-31T06:30:47.865Z,955.67
2018-07-31T06:31:47.863Z,955.67
2018-07-31T06:32:47.897Z,955.65
2018-07-31T06:33:47.868Z,955.66
2018-07-31T06:34:47.873Z,955.69
2018-07-31T06:35:47.873Z,955.67
2018-07-31T06:36:47.876Z,955.73
2018-07-31T06:37:47.883Z,955.67
2018-07-31T06:38:47.883Z,955.73
2018-07-31T06:39:47.885Z,955.75
2018-07-31T06:40:47.886Z,955.77
2018-07-31T06:41:47.890Z,955.77
2018-07-31T06:42:47.893Z,955.75
2018-07-31T06:43:47.895Z,955.75
2018-07-31T06:44:47.897Z,955.86
2018-07-31T06:45:47.902Z,955.79
2018-07-31T06:46:47.903Z,955.81
2018-07-31T06:47:47.926Z,955.81
2018-07-31T06:48:47.909Z,955.86
2018-07-31T06:49:47.913Z,955.86
2018-07-31T06:50:47.916Z,955.85
2018-07-31T06:51:47.917Z,955.86
2018-07-31T06:52:47.922Z,955.91
2018-07-31T06:53:47.924Z,955.89
2018-07-31T06:54:47.928Z,955.91
2018-07-31T06:55:47.930Z,955.9
2018-07-31T06:56:47.987Z,955.87
2018-07-31T06:57:47.939Z,955.88
2018-07-31T06:58:47.943Z,955.95
2018-07-31T06:59:47.948Z,955.9
2018-07-31T07:00:47.954Z,955.98
2018-07-31T07:01:47.958Z,955.93
2018-07-31T07:02:47.962Z,955.98
2018-07-31T07:03:47.968Z,955.99
2018-07-31T07:04:47.973Z,955.96
2018-07-31T07:05:47.985Z,955.93
2018-07-31T07:06:47.984Z,955.97
2018-07-31T07:07:47.991Z,955.95
2018-07-31T07:08:47.998Z,955.96
2018-07-31T07:09:48.011Z,955.97
2018-07-31T07:10:48.012Z,955.98
2018-07-31T07:11:48.017Z,956.04
2018-07-31T07:12:48.027Z,956.04
2018-07-31T07:13:48.034Z,956.06
2018-07-31T07:14:48.040Z,956.07
2018-07-31T07:15:48.048Z,956.03
2018-07-31T07:16:48.057Z,956.06
2018-07-31T07:17:48.070Z,956.11
2018-07-31T07:18:48.075Z,956.04
2018-07-31T07:19:48.080Z,956.04
2018-07-31T07:20:48.090Z,956.05
2018-07-31T07:21:48.100Z,956.06
2018-07-31T07:22:48.110Z,956.09
2018-07-31T07:23:48.117Z,956.06
2018-07-31T07:24:48.126Z,956.08
2018-07-31T07:25:48.136Z,956.08
2018-07-31T07:26:48.147Z,956.13
2018-07-31T07:27:48.182Z,956.13
2018-07-31T07:28:48.165Z,956.19
2018-07-31T07:29:48.176Z,956.13
2018-07-31T07:30:48.186Z,956.23
2018-07-31T07:31:48.196Z,956.26
2018-07-31T07:32:48.206Z,956.23
2018-07-31T07:33:48.304Z,956.27
2018-07-31T07:34:48.227Z,956.32
2018-07-31T07:35:48.239Z,956.3
2018-07-31T07:36:48.252Z,956.3
2018-07-31T07:37:48.259Z,956.33
2018-07-31T07:38:48.270Z,956.24
2018-07-31T07:39:48.281Z,956.27
2018-07-31T07:40:48.296Z,956.27
2018-07-31T07:41:48.302Z,956.28
2018-07-31T07:42:48.315Z,956.28
2018-07-31T07:43:48.328Z,956.25
2018-07-31T07:44:48.341Z,956.32
2018-07-31T07:45:48.350Z,956.43
2018-07-31T07:46:48.362Z,956.47
2018-07-31T07:47:48.373Z,956.51
2018-07-31T07:48:48.386Z,956.57
2018-07-31T07:49:48.397Z,956.61
2018-07-31T07:50:48.410Z,956.64
2018-07-31T07:51:48.422Z,956.65
2018-07-31T07:52:48.434Z,956.63
2018-07-31T07:53:48.486Z,956.52
2018-07-31T07:54:48.458Z,956.25
2018-07-31T07:55:48.469Z,956.04
2018-07-31T07:56:48.480Z,956.03
2018-07-31T07:57:48.492Z,956.02
2018-07-31T07:58:48.504Z,956.02
2018-07-31T07:59:48.514Z,956.01
2018-07-31T08:00:48.526Z,956.01
2018-07-31T08:01:48.541Z,956.01
2018-07-31T08:02:48.549Z,956.03
2018-07-31T08:03:48.660Z,956.02
2018-07-31T08:04:48.572Z,956.1
2018-07-31T08:05:48.583Z,956.1
2018-07-31T08:06:48.597Z,956.1
2018-07-31T08:07:48.608Z,956.09
2018-07-31T08:08:48.617Z,956.09
2018-07-31T08:09:48.675Z,956.14
2018-07-31T08:10:48.638Z,956.16
2018-07-31T08:11:48.649Z,956.11
2018-07-31T08:12:48.659Z,956.12
2018-07-31T08:13:48.696Z,956.13
2018-07-31T08:14:48.678Z,956.1
2018-07-31T08:15:48.693Z,956.15
2018-07-31T08:16:48.700Z,956.2
2018-07-31T08:17:48.710Z,956.16
2018-07-31T08:18:48.721Z,956.14
2018-07-31T08:19:48.730Z,956.16
2018-07-31T08:20:48.742Z,956.17
2018-07-31T08:21:48.751Z,956.2
2018-07-31T08:22:48.763Z,956.18
2018-07-31T08:23:48.768Z,956.21
2018-07-31T08:24:48.781Z,956.19
2018-07-31T08:25:48.791Z,956.18
2018-07-31T08:26:48.797Z,956.18
2018-07-31T08:27:48.836Z,956.17
2018-07-31T08:28:48.820Z,956.19
2018-07-31T08:29:48.825Z,956.12
2018-07-31T08:30:48.835Z,956.19
2018-07-31T08:31:48.844Z,956.17
2018-07-31T08:32:48.853Z,956.17
2018-07-31T08:33:48.860Z,956.17
2018-07-31T08:34:48.870Z,956.17
2018-07-31T08:35:48.880Z,956.13
2018-07-31T08:36:48.887Z,956.13
2018-07-31T08:37:48.896Z,956.17
2018-07-31T08:38:48.914Z,956.15
2018-07-31T08:39:48.913Z,956.15
2018-07-31T08:40:48.921Z,956.12
2018-07-31T08:41:48.930Z,956.13
2018-07-31T08:42:48.940Z,956.15
2018-07-31T08:43:48.946Z,956.14
2018-07-31T08:44:48.954Z,956.14
2018-07-31T08:45:48.964Z,956.16
2018-07-31T08:46:48.973Z,956.18
2018-07-31T08:47:48.981Z,956.16
2018-07-31T08:48:48.990Z,956.15
2018-07-31T08:49:49.001Z,956.14
2018-07-31T08:50:49.013Z,956.09
2018-07-31T08:51:49.016Z,956.18
2018-07-31T08:52:49.023Z,956.15
2018-07-31T08:53:49.034Z,956.18
2018-07-31T08:54:49.041Z,956.2
2018-07-31T08:55:49.148Z,956.15
2018-07-31T08:56:49.083Z,956.11
2018-07-31T08:57:49.064Z,956.13
2018-07-31T08:58:49.073Z,956.14
2018-07-31T08:59:49.081Z,956.12
2018-07-31T09:00:49.092Z,956.11
2018-07-31T09:01:49.101Z,956.15
2018-07-31T09:02:49.179Z,956.11
2018-07-31T09:03:49.115Z,956.1
2018-07-31T09:04:49.123Z,956.11
2018-07-31T09:05:49.132Z,956.09
2018-07-31T09:06:49.138Z,956.1
2018-07-31T09:07:49.149Z,956.07
2018-07-31T09:08:49.219Z,956.03
2018-07-31T09:09:49.165Z,956.04
2018-07-31T09:10:49.180Z,956.01
2018-07-31T09:11:49.180Z,956.06
2018-07-31T09:12:49.186Z,956
2018-07-31T09:13:49.196Z,956.01
2018-07-31T09:14:49.204Z,956.04
2018-07-31T09:15:49.214Z,956.02
2018-07-31T09:16:49.221Z,956.06
2018-07-31T09:17:49.228Z,956.04
2018-07-31T09:18:49.238Z,956.04
2018-07-31T09:19:49.245Z,956.02
2018-07-31T09:20:49.253Z,956.02
2018-07-31T09:21:49.261Z,955.99
2018-07-31T09:22:49.270Z,956
2018-07-31T09:23:49.277Z,955.97
2018-07-31T09:24:49.340Z,956.01
2018-07-31T09:25:49.294Z,955.95
2018-07-31T09:26:49.302Z,955.98
2018-07-31T09:27:49.310Z,955.91
2018-07-31T09:28:49.317Z,955.94
2018-07-31T09:29:49.327Z,956
2018-07-31T09:30:49.400Z,955.94
2018-07-31T09:31:49.342Z,955.95
2018-07-31T09:32:49.351Z,955.9
2018-07-31T09:33:49.359Z,955.91
2018-07-31T09:34:49.367Z,955.88
2018-07-31T09:35:49.374Z,955.89
2018-07-31T09:36:49.383Z,955.9
2018-07-31T09:37:49.392Z,955.93
2018-07-31T09:38:49.399Z,955.95
2018-07-31T09:39:49.408Z,955.92
2018-07-31T09:40:49.419Z,955.95
2018-07-31T09:41:49.424Z,955.95
2018-07-31T09:42:49.432Z,955.96
2018-07-31T09:43:49.440Z,955.95
2018-07-31T09:44:49.448Z,955.93
2018-07-31T09:45:49.455Z,955.94
2018-07-31T09:46:49.464Z,955.96
2018-07-31T09:47:49.472Z,955.95
2018-07-31T09:48:49.481Z,955.94
2018-07-31T09:49:49.488Z,955.93
2018-07-31T09:50:49.497Z,955.95
2018-07-31T09:51:49.506Z,955.92
2018-07-31T09:52:49.513Z,955.94
2018-07-31T09:53:49.524Z,955.94
2018-07-31T09:54:49.534Z,955.94
2018-07-31T09:55:49.538Z,955.93
2018-07-31T09:56:49.547Z,955.94
2018-07-31T09:57:49.555Z,955.97
2018-07-31T09:58:49.563Z,955.97
2018-07-31T09:59:49.573Z,955.92
2018-07-31T10:00:49.582Z,955.97
2018-07-31T10:01:49.589Z,955.96
2018-07-31T10:02:49.597Z,955.95
2018-07-31T10:03:49.609Z,955.95
2018-07-31T10:04:49.612Z,955.86
2018-07-31T10:05:49.622Z,955.9
2018-07-31T10:06:49.632Z,955.9
2018-07-31T10:07:49.639Z,955.87
2018-07-31T10:08:49.647Z,955.92
2018-07-31T10:09:49.656Z,955.88
2018-07-31T10:10:49.665Z,955.88
2018-07-31T10:11:49.741Z,955.83
2018-07-31T10:12:49.681Z,955.88
2018-07-31T10:13:49.689Z,955.87
2018-07-31T10:14:49.698Z,955.9
2018-07-31T10:15:49.706Z,955.9
2018-07-31T10:16:49.717Z,955.87
2018-07-31T10:17:49.740Z,955.85
2018-07-31T10:18:49.736Z,955.83
2018-07-31T10:19:49.741Z,955.82
2018-07-31T10:20:49.749Z,955.77
2018-07-31T10:21:49.758Z,955.76
2018-07-31T10:22:49.770Z,955.71
2018-07-31T10:23:49.778Z,955.73
2018-07-31T10:24:49.792Z,955.69
2018-07-31T10:25:49.795Z,955.71
2018-07-31T10:26:49.805Z,955.72
2018-07-31T10:27:49.822Z,955.76
2018-07-31T10:28:49.826Z,955.72
2018-07-31T10:29:49.833Z,955.76
2018-07-31T10:30:50.011Z,955.76
2018-07-31T10:31:49.849Z,955.75
2018-07-31T10:32:49.856Z,955.75
2018-07-31T10:33:49.866Z,955.71
2018-07-31T10:34:49.875Z,955.69
2018-07-31T10:35:49.884Z,955.68
2018-07-31T10:36:49.893Z,955.65
2018-07-31T10:37:49.945Z,955.66
2018-07-31T10:38:49.912Z,955.7
2018-07-31T10:39:49.920Z,955.68
2018-07-31T10:40:49.929Z,955.73
2018-07-31T10:41:49.941Z,955.74
2018-07-31T10:42:49.947Z,955.71
2018-07-31T10:43:50.004Z,955.79
2018-07-31T10:44:49.965Z,955.76
2018-07-31T10:45:49.974Z,955.78
2018-07-31T10:46:49.984Z,955.8
2018-07-31T10:47:49.992Z,955.73
2018-07-31T10:48:50.033Z,955.78
2018-07-31T10:49:50.012Z,955.72
2018-07-31T10:50:50.020Z,955.71
2018-07-31T10:51:50.029Z,955.67
2018-07-31T10:52:50.038Z,955.71
2018-07-31T10:53:50.048Z,955.74
2018-07-31T10:54:50.057Z,955.76
2018-07-31T10:55:50.066Z,955.74
2018-07-31T10:56:50.073Z,955.72
2018-07-31T10:57:50.085Z,955.77
2018-07-31T10:58:50.092Z,955.76
2018-07-31T10:59:50.207Z,955.7
2018-07-31T11:00:50.116Z,955.68
2018-07-31T11:01:50.120Z,955.68
2018-07-31T11:02:50.145Z,955.72
2018-07-31T11:03:50.148Z,955.72
2018-07-31T11:04:50.148Z,955.7
2018-07-31T11:05:50.157Z,955.74
2018-07-31T11:06:50.165Z,955.69
2018-07-31T11:07:50.174Z,955.68
2018-07-31T11:08:50.189Z,955.65
2018-07-31T11:09:50.192Z,955.66
2018-07-31T11:10:50.204Z,955.65
2018-07-31T11:11:50.224Z,955.64
2018-07-31T11:12:50.224Z,955.6
2018-07-31T11:13:50.230Z,955.58
2018-07-31T11:14:50.258Z,955.61
2018-07-31T11:15:50.249Z,955.63
2018-07-31T11:16:50.260Z,955.61
2018-07-31T11:17:50.267Z,955.58
2018-07-31T11:18:50.277Z,955.55
2018-07-31T11:19:50.294Z,955.52
2018-07-31T11:20:50.356Z,955.48
2018-07-31T11:21:50.305Z,955.5
2018-07-31T11:22:50.314Z,955.46
2018-07-31T11:23:50.324Z,955.49
2018-07-31T11:24:50.332Z,955.48
2018-07-31T11:25:50.342Z,955.43
2018-07-31T11:26:50.350Z,955.5
2018-07-31T11:27:50.359Z,955.49
2018-07-31T11:28:50.372Z,955.53
2018-07-31T11:29:50.378Z,955.52
2018-07-31T11:30:50.388Z,955.48
2018-07-31T11:31:50.396Z,955.47
2018-07-31T11:32:50.406Z,955.43
2018-07-31T11:33:50.415Z,955.4
2018-07-31T11:34:50.424Z,955.44
2018-07-31T11:35:50.432Z,955.42
2018-07-31T11:36:50.443Z,955.45
2018-07-31T11:37:50.451Z,955.47
2018-07-31T11:38:50.460Z,955.45
2018-07-31T11:39:50.468Z,955.43
2018-07-31T11:40:50.478Z,955.44
2018-07-31T11:41:50.489Z,955.44
2018-07-31T11:42:50.494Z,955.41
2018-07-31T11:43:50.530Z,955.43
2018-07-31T11:44:50.513Z,955.43
2018-07-31T11:45:50.523Z,955.46
2018-07-31T11:46:50.530Z,955.4
2018-07-31T11:47:50.539Z,955.44
2018-07-31T11:48:50.551Z,955.43
2018-07-31T11:49:50.648Z,955.43
2018-07-31T11:50:50.566Z,955.38
2018-07-31T11:51:50.577Z,955.4
2018-07-31T11:52:50.587Z,955.38
2018-07-31T11:53:50.593Z,955.4
2018-07-31T11:54:50.600Z,955.38
2018-07-31T11:55:50.662Z,955.37
2018-07-31T11:56:50.618Z,955.34
2018-07-31T11:57:50.629Z,955.38
2018-07-31T11:58:50.636Z,955.39
2018-07-31T11:59:50.649Z,955.4
2018-07-31T12:00:50.654Z,955.39
2018-07-31T12:01:50.676Z,955.38
2018-07-31T12:02:50.672Z,955.37
2018-07-31T12:03:50.681Z,955.4
2018-07-31T12:04:50.689Z,955.4
2018-07-31T12:05:50.696Z,955.37
2018-07-31T12:06:50.706Z,955.37
2018-07-31T12:07:50.717Z,955.37
2018-07-31T12:08:50.723Z,955.34
2018-07-31T12:09:50.786Z,955.34
2018-07-31T12:10:50.739Z,955.36
2018-07-31T12:11:50.746Z,955.33
2018-07-31T12:12:50.755Z,955.34
2018-07-31T12:13:50.818Z,955.33
2018-07-31T12:14:50.777Z,955.3
2018-07-31T12:15:50.781Z,955.37
2018-07-31T12:16:50.790Z,955.36
2018-07-31T12:17:50.798Z,955.4
2018-07-31T12:18:50.804Z,955.4
2018-07-31T12:19:50.814Z,955.4
2018-07-31T12:20:50.843Z,955.39
2018-07-31T12:21:50.831Z,955.36
2018-07-31T12:22:50.846Z,955.38
2018-07-31T12:23:50.848Z,955.38
2018-07-31T12:24:50.857Z,955.38
2018-07-31T12:25:50.863Z,955.4
2018-07-31T12:26:50.875Z,955.45
2018-07-31T12:27:50.880Z,955.43
2018-07-31T12:28:50.890Z,955.45
2018-07-31T12:29:50.898Z,955.43
2018-07-31T12:30:50.903Z,955.44
2018-07-31T12:31:50.913Z,955.41